Uni Wealth — VRFV4 — position and weather

sailwx.info

Track history (hours):
 
Tides and Currents Weather Stations Pressure Air Temp Water Temp Dewpoint Dewpoint Depression Visibility Wind Speed Wind Dir Waves Ship Positions

Uni Wealth

Last reported at 2017-Mar-15 07:11 UTC. Time now 2017-Mar-24 17:54 UTC.
Position N 36°20' E 014°49'.
Warning: this ship's position is 9 days out of date.

Length 170 m; draft 10.4 m.

Type: Cargo ship. MMSI: 477621200.

Date/timePositionNaut miles runAvg speedWind from/ knotsBaromVisibWave heightAir tempDewpointWater temp
2017-Mar-15 07:11N 36°20' E 014°49'812.1
2017-Mar-15 06:33N 36°22' E 014°40'1212.0
2017-Mar-15 05:33N 36°26' E 014°26'1211.9
2017-Mar-15 04:33N 36°29' E 014°12'1212.2
2017-Mar-15 03:33N 36°33' E 013°57'  
2017-Mar-11 23:33N 36°05' W 004°54'1414.5
2017-Mar-11 22:33N 36°03' W 005°11'10 9.9
2017-Mar-11 21:33N 36°07' W 005°23'1 1.1
2017-Mar-11 20:31N 36°08' W 005°22'0 0.0
2017-Mar-11 19:31N 36°08' W 005°22'0 0.0
2017-Mar-11 18:31N 36°08' W 005°22'0 0.0
2017-Mar-11 17:34N 36°08' W 005°22'0 0.0
2017-Mar-11 16:30N 36°08' W 005°22'0 0.0
2017-Mar-11 15:33N 36°08' W 005°22'0 0.2
2017-Mar-11 14:34N 36°08' W 005°22'0 0.1
2017-Mar-11 13:31N 36°08' W 005°22'0 0.1
2017-Mar-11 12:34N 36°08' W 005°22'0 0.1
2017-Mar-11 11:34N 36°08' W 005°22'0 0.0
2017-Mar-11 10:33N 36°08' W 005°22'0 0.0
2017-Mar-11 09:31N 36°08' W 005°22'0 0.2
2017-Mar-11 08:34N 36°08' W 005°22'0 0.0
2017-Mar-11 07:33N 36°08' W 005°22'5 4.9
2017-Mar-11 06:33N 36°05' W 005°18'5 4.5
2017-Mar-11 05:33N 36°03' W 005°12'2 2.4
2017-Mar-11 04:33N 36°03' W 005°15'7 6.9
2017-Mar-11 03:33N 35°60' W 005°23'1413.8
2017-Mar-11 02:32N 35°55' W 005°39'10112.6
2017-Mar-10 18:33N 36°13' W 007°42'2711.9
2017-Mar-10 16:14N 36°20' W 008°14'811.8
2017-Mar-10 15:33N 36°22' W 008°24'1211.9
2017-Mar-10 14:33N 36°25' W 008°38'1212.0
2017-Mar-10 13:33N 36°28' W 008°53'1211.8
2017-Mar-10 12:33N 36°31' W 009°07'1111.2
2017-Mar-10 11:33N 36°36' W 009°19'1111.4
2017-Mar-10 10:33N 36°45' W 009°29'1611.1
2017-Mar-10 09:05N 36°60' W 009°37'3011.8
2017-Mar-10 06:33N 37°29' W 009°45'1212.1
2017-Mar-10 05:33N 37°41' W 009°48'1312.0
2017-Mar-10 04:30N 37°53' W 009°52'1112.1
2017-Mar-10 03:33N 38°04' W 009°55'1212.2
2017-Mar-10 02:33N 38°16' W 009°59'1211.9
2017-Mar-10 01:33N 38°28' W 010°02'1212.2
2017-Mar-10 00:33N 38°40' W 010°06'1212.2
2017-Mar-09 23:33N 38°52' W 010°06'1211.9
2017-Mar-09 22:33N 39°04' W 010°06'1212.0
2017-Mar-09 21:33N 39°16' W 010°06'1212.2
2017-Mar-09 20:33N 39°28' W 010°06'1212.1
2017-Mar-09 19:33N 39°40' W 010°06'  
2017-Mar-07 04:33N 49°52' W 003°32'1010.3
2017-Mar-07 03:33N 49°55' W 003°17'10 9.6
2017-Mar-07 02:33N 49°58' W 003°03'40 8.8
2017-Mar-06 22:04N 50°08' W 002°03'610.9
2017-Mar-06 21:32N 50°10' W 001°55'1111.6
2017-Mar-06 20:33N 50°13' W 001°38'1212.3
2017-Mar-06 19:33N 50°16' W 001°19'3511.6
2017-Mar-06 16:30N 50°25' W 000°26'1010.1
2017-Mar-06 15:33N 50°28' W 000°11'10 9.6
2017-Mar-06 14:33N 50°30' E 000°03'10 9.8
2017-Mar-06 13:33N 50°33' E 000°18'1110.6
2017-Mar-06 12:33N 50°36' E 000°34'1211.8
2017-Mar-06 11:33N 50°42' E 000°50'1312.5
2017-Mar-06 10:29N 50°50' E 001°08'1112.2
2017-Mar-06 09:33N 50°57' E 001°21'1111.3
2017-Mar-06 08:33N 51°05' E 001°33'1010.2
2017-Mar-06 07:33N 51°13' E 001°45'10 9.7
2017-Mar-06 06:33N 51°21' E 001°53'1010.0
2017-Mar-06 05:33N 51°30' E 002°01'1110.7
2017-Mar-06 04:33N 51°37' E 002°13'16911.0
2017-Mar-05 13:07N 54°06' E 004°27'710.8
2017-Mar-05 12:29N 54°11' E 004°34'1010.9
2017-Mar-05 11:32N 54°20' E 004°44'1111.2
2017-Mar-05 10:33N 54°29' E 004°54'1111.2
2017-Mar-05 09:33N 54°39' E 005°04'1211.4
2017-Mar-05 08:32N 54°49' E 005°13'1111.5
2017-Mar-05 07:32N 54°59' E 005°23'  
Track history (hours):
 
Tides and Currents Weather Stations Pressure Air Temp Water Temp Dewpoint Dewpoint Depression Visibility Wind Speed Wind Dir Waves Ship Positions

Uni Wealth

Last reported at 2017-Mar-15 07:11 UTC. Time now 2017-Mar-24 17:54 UTC.
Position N 36°20' E 014°49'.
Warning: this ship's position is 9 days out of date.

Length 170 m; draft 10.4 m.

Type: Cargo ship. MMSI: 477621200.

Date/timePositionNaut miles runAvg speedWind from/ knotsBaromVisibWave heightAir tempDewpointWater temp
2017-Mar-15 07:11N 36°20' E 014°49'812.1
2017-Mar-15 06:33N 36°22' E 014°40'1212.0
2017-Mar-15 05:33N 36°26' E 014°26'1211.9
2017-Mar-15 04:33N 36°29' E 014°12'1212.2
2017-Mar-15 03:33N 36°33' E 013°57'  
2017-Mar-11 23:33N 36°05' W 004°54'1414.5
2017-Mar-11 22:33N 36°03' W 005°11'10 9.9
2017-Mar-11 21:33N 36°07' W 005°23'1 1.1
2017-Mar-11 20:31N 36°08' W 005°22'0 0.0
2017-Mar-11 19:31N 36°08' W 005°22'0 0.0
2017-Mar-11 18:31N 36°08' W 005°22'0 0.0
2017-Mar-11 17:34N 36°08' W 005°22'0 0.0
2017-Mar-11 16:30N 36°08' W 005°22'0 0.0
2017-Mar-11 15:33N 36°08' W 005°22'0 0.2
2017-Mar-11 14:34N 36°08' W 005°22'0 0.1
2017-Mar-11 13:31N 36°08' W 005°22'0 0.1
2017-Mar-11 12:34N 36°08' W 005°22'0 0.1
2017-Mar-11 11:34N 36°08' W 005°22'0 0.0
2017-Mar-11 10:33N 36°08' W 005°22'0 0.0
2017-Mar-11 09:31N 36°08' W 005°22'0 0.2
2017-Mar-11 08:34N 36°08' W 005°22'0 0.0
2017-Mar-11 07:33N 36°08' W 005°22'5 4.9
2017-Mar-11 06:33N 36°05' W 005°18'5 4.5
2017-Mar-11 05:33N 36°03' W 005°12'2 2.4
2017-Mar-11 04:33N 36°03' W 005°15'7 6.9
2017-Mar-11 03:33N 35°60' W 005°23'1413.8
2017-Mar-11 02:32N 35°55' W 005°39'10112.6
2017-Mar-10 18:33N 36°13' W 007°42'2711.9
2017-Mar-10 16:14N 36°20' W 008°14'811.8
2017-Mar-10 15:33N 36°22' W 008°24'1211.9
2017-Mar-10 14:33N 36°25' W 008°38'1212.0
2017-Mar-10 13:33N 36°28' W 008°53'1211.8
2017-Mar-10 12:33N 36°31' W 009°07'1111.2
2017-Mar-10 11:33N 36°36' W 009°19'1111.4
2017-Mar-10 10:33N 36°45' W 009°29'1611.1
2017-Mar-10 09:05N 36°60' W 009°37'3011.8
2017-Mar-10 06:33N 37°29' W 009°45'1212.1
2017-Mar-10 05:33N 37°41' W 009°48'1312.0
2017-Mar-10 04:30N 37°53' W 009°52'1112.1
2017-Mar-10 03:33N 38°04' W 009°55'1212.2
2017-Mar-10 02:33N 38°16' W 009°59'1211.9
2017-Mar-10 01:33N 38°28' W 010°02'1212.2
2017-Mar-10 00:33N 38°40' W 010°06'1212.2
2017-Mar-09 23:33N 38°52' W 010°06'1211.9
2017-Mar-09 22:33N 39°04' W 010°06'1212.0
2017-Mar-09 21:33N 39°16' W 010°06'1212.2
2017-Mar-09 20:33N 39°28' W 010°06'1212.1
2017-Mar-09 19:33N 39°40' W 010°06'  
2017-Mar-07 04:33N 49°52' W 003°32'1010.3
2017-Mar-07 03:33N 49°55' W 003°17'10 9.6
2017-Mar-07 02:33N 49°58' W 003°03'40 8.8
2017-Mar-06 22:04N 50°08' W 002°03'610.9
2017-Mar-06 21:32N 50°10' W 001°55'1111.6
2017-Mar-06 20:33N 50°13' W 001°38'1212.3
2017-Mar-06 19:33N 50°16' W 001°19'3511.6
2017-Mar-06 16:30N 50°25' W 000°26'1010.1
2017-Mar-06 15:33N 50°28' W 000°11'10 9.6
2017-Mar-06 14:33N 50°30' E 000°03'10 9.8
2017-Mar-06 13:33N 50°33' E 000°18'1110.6
2017-Mar-06 12:33N 50°36' E 000°34'1211.8
2017-Mar-06 11:33N 50°42' E 000°50'1312.5
2017-Mar-06 10:29N 50°50' E 001°08'1112.2
2017-Mar-06 09:33N 50°57' E 001°21'1111.3
2017-Mar-06 08:33N 51°05' E 001°33'1010.2
2017-Mar-06 07:33N 51°13' E 001°45'10 9.7
2017-Mar-06 06:33N 51°21' E 001°53'1010.0
2017-Mar-06 05:33N 51°30' E 002°01'1110.7
2017-Mar-06 04:33N 51°37' E 002°13'16911.0
2017-Mar-05 13:07N 54°06' E 004°27'710.8
2017-Mar-05 12:29N 54°11' E 004°34'1010.9
2017-Mar-05 11:32N 54°20' E 004°44'1111.2
2017-Mar-05 10:33N 54°29' E 004°54'1111.2
2017-Mar-05 09:33N 54°39' E 005°04'1211.4
2017-Mar-05 08:32N 54°49' E 005°13'1111.5
2017-Mar-05 07:32N 54°59' E 005°23'  

Dump ship's entire track history